Time;durP1;ratioP1;P1;durP2;ratioP2;P2;SDS_P1;SDS_P2;PMS_P1;PMS_P2;Temp;Humidity;BMP_temperature;BMP_pressure;BME280_temperature;BME280_humidity;BME280_pressure;Samples;Min_cycle;Max_cycle;Signal;HPM_P1;HPM_P2
2021/03/15 00:03:19;;;;;;;0.20;0.10;;;12.20;99.90;;;;;;20457655;29;20586;-73
2021/03/15 00:13:31;;;;;;;0.37;0.30;;;12.20;99.90;;;;;;20433878;29;20216;-72
2021/03/15 00:23:39;;;;;;;0.20;0.10;;;12.30;99.90;;;;;;20439454;29;20607;-71
2021/03/15 00:33:42;;;;;;;1.53;0.60;;;12.30;99.90;;;;;;20445169;28;20701;-74
2021/03/15 00:43:55;;;;;;;0.20;0.20;;;12.10;99.90;;;;;;20452993;28;20556;-73
2021/03/15 00:53:58;;;;;;;0.20;0.20;;;12.10;99.90;;;;;;20433097;28;20553;-74
2021/03/15 01:04:02;;;;;;;0.93;0.90;;;12.20;99.90;;;;;;20464664;23;20247;-71
2021/03/15 01:14:16;;;;;;;0.20;0.20;;;12.10;99.90;;;;;;20475572;28;20242;-71
2021/03/15 01:24:20;;;;;;;0.20;0.10;;;12.00;99.90;;;;;;20523494;28;20216;-71
2021/03/15 01:34:23;;;;;;;0.20;0.10;;;12.00;99.90;;;;;;20499469;28;20605;-73
2021/03/15 01:44:39;;;;;;;1.23;0.40;;;11.90;99.90;;;;;;20500169;28;20200;-71
2021/03/15 01:54:42;;;;;;;0.20;0.10;;;11.70;99.90;;;;;;20506804;28;20314;-71
2021/03/15 02:04:45;;;;;;;0.63;0.37;;;11.70;99.90;;;;;;20509764;28;20243;-70
2021/03/15 02:15:10;;;;;;;9.20;1.27;;;11.90;99.90;;;;;;20522514;28;20228;-71
2021/03/15 02:25:51;;;;;;;2.23;0.50;;;11.80;99.90;;;;;;20514468;28;20226;-71
2021/03/15 02:35:55;;;;;;;0.20;0.20;;;11.70;99.90;;;;;;20434314;28;20250;-72
2021/03/15 02:46:02;;;;;;;0.20;0.10;;;11.80;99.90;;;;;;20450824;28;20208;-70
2021/03/15 02:56:13;;;;;;;0.20;0.10;;;11.70;99.90;;;;;;20450984;28;20740;-69
2021/03/15 03:06:19;;;;;;;0.93;0.93;;;11.40;99.90;;;;;;20455672;28;20386;-69
2021/03/15 03:16:24;;;;;;;0.20;0.20;;;11.20;99.90;;;;;;20467403;28;20487;-70
2021/03/15 03:26:29;;;;;;;0.30;0.30;;;11.00;99.90;;;;;;20464329;28;20208;-71
2021/03/15 03:36:33;;;;;;;0.20;0.20;;;10.90;99.90;;;;;;20464907;28;20232;-71
2021/03/15 03:46:36;;;;;;;0.20;0.20;;;10.80;99.90;;;;;;20463675;28;20199;-70
2021/03/15 03:56:50;;;;;;;0.20;0.10;;;10.80;99.90;;;;;;20463463;28;20304;-71
2021/03/15 04:06:53;;;;;;;3.00;0.80;;;10.60;99.90;;;;;;20463553;28;20243;-71
2021/03/15 04:16:58;;;;;;;0.20;0.10;;;10.40;99.90;;;;;;20460475;28;20607;-72
2021/03/15 04:27:02;;;;;;;0.20;0.10;;;10.20;99.90;;;;;;20461825;28;20775;-71
2021/03/15 04:37:08;;;;;;;0.60;0.60;;;10.10;99.90;;;;;;20458023;28;20239;-71
2021/03/15 04:47:12;;;;;;;0.20;0.10;;;10.30;99.90;;;;;;20460670;28;20234;-72
2021/03/15 04:57:18;;;;;;;0.20;0.10;;;10.40;99.90;;;;;;20457777;28;20225;-71
2021/03/15 05:07:21;;;;;;;0.20;0.10;;;10.30;99.90;;;;;;20602735;23;20232;-73
2021/03/15 05:17:28;;;;;;;0.20;0.10;;;10.30;99.90;;;;;;20619745;28;20234;-75
2021/03/15 05:27:31;;;;;;;1.17;0.47;;;10.10;99.90;;;;;;20620867;28;20684;-74
2021/03/15 05:37:36;;;;;;;0.20;0.20;;;9.90;99.90;;;;;;20618055;28;20230;-74
2021/03/15 05:48:41;;;;;;;0.20;0.10;;;9.60;99.90;;;;;;20616701;28;20286;-74
2021/03/15 05:59:20;;;;;;;0.20;0.20;;;9.40;99.90;;;;;;20593273;28;20243;-74
2021/03/15 06:09:30;;;;;;;0.20;0.20;;;9.20;99.90;;;;;;20611824;28;20633;-74
2021/03/15 06:19:34;;;;;;;0.20;0.10;;;9.10;99.90;;;;;;20586874;28;20239;-73
2021/03/15 06:29:37;;;;;;;0.40;0.40;;;9.30;99.90;;;;;;20562756;28;20562;-73
2021/03/15 06:39:42;;;;;;;0.63;0.50;;;9.30;99.90;;;;;;20610374;28;20246;-74
2021/03/15 06:49:45;;;;;;;0.20;0.20;;;9.30;99.90;;;;;;20608468;28;20192;-75
2021/03/15 06:59:51;;;;;;;0.20;0.17;;;9.60;99.90;;;;;;20608347;28;20266;-73
2021/03/15 07:09:57;;;;;;;0.50;0.47;;;9.80;99.90;;;;;;20607437;28;20355;-73
2021/03/15 07:20:01;;;;;;;0.20;0.13;;;9.90;99.90;;;;;;20607578;28;20698;-74
2021/03/15 07:30:41;;;;;;;0.40;0.40;;;10.00;99.90;;;;;;20629055;28;20460;-78
2021/03/15 07:40:46;;;;;;;0.20;0.10;;;10.20;99.90;;;;;;20538899;28;20219;-70
2021/03/15 07:50:57;;;;;;;0.20;0.20;;;10.70;99.90;;;;;;20610347;28;20471;-70
2021/03/15 08:01:02;;;;;;;0.70;0.40;;;11.00;99.90;;;;;;20617178;28;20427;-70
2021/03/15 08:11:08;;;;;;;0.20;0.10;;;11.60;99.90;;;;;;20620850;28;20206;-71
2021/03/15 08:21:18;;;;;;;1.27;0.53;;;11.10;99.90;;;;;;20619753;28;20242;-69
2021/03/15 08:31:24;;;;;;;0.20;0.17;;;11.20;99.90;;;;;;20619052;28;20199;-72
2021/03/15 08:41:27;;;;;;;0.20;0.20;;;11.40;99.90;;;;;;20616602;28;20230;-73
2021/03/15 08:51:50;;;;;;;0.87;0.53;;;12.00;99.90;;;;;;20617033;28;20199;-71
2021/03/15 09:02:01;;;;;;;1.70;0.40;;;12.60;99.90;;;;;;20628432;28;20601;-72
2021/03/15 09:12:05;;;;;;;0.23;0.23;;;12.60;99.90;;;;;;20613209;28;20506;-72
2021/03/15 09:22:21;;;;;;;1.23;0.87;;;13.00;99.90;;;;;;20614345;28;20492;-70
2021/03/15 09:32:30;;;;;;;0.27;0.27;;;13.30;99.90;;;;;;20615927;28;20281;-71
2021/03/15 09:42:39;;;;;;;0.77;0.30;;;13.60;99.90;;;;;;20612951;28;20230;-71
2021/03/15 09:52:41;;;;;;;0.20;0.10;;;13.70;99.90;;;;;;20613852;28;20195;-74
2021/03/15 10:02:46;;;;;;;0.23;0.13;;;14.10;99.90;;;;;;20613363;28;20241;-72
2021/03/15 10:12:50;;;;;;;0.20;0.10;;;14.40;99.90;;;;;;20610730;28;20203;-71
2021/03/15 10:22:55;;;;;;;0.20;0.10;;;14.80;99.90;;;;;;20592141;28;20306;-67
2021/03/15 10:32:59;;;;;;;0.30;0.20;;;15.10;99.90;;;;;;20617891;28;20645;-70
2021/03/15 10:43:04;;;;;;;0.20;0.10;;;15.70;99.90;;;;;;20605958;28;20689;-71
2021/03/15 10:53:13;;;;;;;5.20;1.80;;;16.20;99.90;;;;;;20607411;28;20191;-70
2021/03/15 11:03:23;;;;;;;1.03;0.20;;;16.40;99.90;;;;;;20600240;28;20389;-69
2021/03/15 11:13:26;;;;;;;0.20;0.10;;;17.30;99.90;;;;;;20601210;28;20493;-72
2021/03/15 11:23:32;;;;;;;0.50;0.50;;;17.00;99.90;;;;;;20623013;28;20318;-70
2021/03/15 11:33:34;;;;;;;0.63;0.40;;;16.70;99.90;;;;;;20625130;28;20623;-73
2021/03/15 11:43:38;;;;;;;0.20;0.10;;;16.70;99.90;;;;;;20623857;28;20231;-70
2021/03/15 11:53:42;;;;;;;0.40;0.20;;;17.40;99.90;;;;;;20622645;28;20571;-71
2021/03/15 12:03:46;;;;;;;0.20;0.10;;;18.90;99.90;;;;;;20622193;28;20227;-72
2021/03/15 12:13:50;;;;;;;0.20;0.20;;;19.10;99.90;;;;;;20615733;28;20555;-70
2021/03/15 12:23:53;;;;;;;0.40;0.37;;;19.40;99.90;;;;;;20614310;28;20225;-69
2021/03/15 12:33:56;;;;;;;0.23;0.23;;;19.50;99.90;;;;;;20618666;28;20318;-69
2021/03/15 12:44:01;;;;;;;0.30;0.30;;;19.70;99.90;;;;;;20613194;28;20234;-71
2021/03/15 12:54:04;;;;;;;0.20;0.13;;;20.40;99.90;;;;;;20568825;28;20264;-74
2021/03/15 13:04:09;;;;;;;1.50;0.30;;;19.60;99.90;;;;;;20534833;28;20566;-71
2021/03/15 13:14:13;;;;;;;0.20;0.10;;;20.10;99.90;;;;;;20598332;28;20470;-69
2021/03/15 13:24:16;;;;;;;0.27;0.17;;;20.60;99.90;;;;;;20608042;28;20666;-70
2021/03/15 13:34:19;;;;;;;0.20;0.10;;;21.50;99.90;;;;;;20607691;28;20200;-70
2021/03/15 13:44:22;;;;;;;0.37;0.13;;;22.10;99.90;;;;;;20605761;28;20227;-70
2021/03/15 13:54:28;;;;;;;0.20;0.10;;;22.70;99.90;;;;;;20612212;28;20548;-70
2021/03/15 14:04:33;;;;;;;0.20;0.10;;;22.30;99.90;;;;;;20607506;28;20223;-72
2021/03/15 14:14:36;;;;;;;0.40;0.30;;;22.50;99.90;;;;;;20609717;28;20223;-71
2021/03/15 14:24:54;;;;;;;0.30;0.20;;;22.90;99.90;;;;;;20609446;28;20568;-69
2021/03/15 14:34:57;;;;;;;0.87;0.60;;;23.00;99.90;;;;;;20608922;28;20266;-72
2021/03/15 14:45:01;;;;;;;0.20;0.20;;;23.00;99.90;;;;;;20607303;28;20233;-70
2021/03/15 14:55:19;;;;;;;0.40;0.30;;;22.80;99.90;;;;;;20604260;28;20214;-72
2021/03/15 15:05:26;;;;;;;2.77;0.50;;;23.30;99.90;;;;;;20620909;28;20227;-70
2021/03/15 15:15:28;;;;;;;0.53;0.27;;;23.00;99.90;;;;;;20640302;28;20203;-70
2021/03/15 15:25:46;;;;;;;0.83;0.30;;;22.90;99.90;;;;;;20621321;28;20211;-70
2021/03/15 15:35:49;;;;;;;0.43;0.20;;;22.60;99.90;;;;;;20618413;28;20347;-71
2021/03/15 15:45:52;;;;;;;0.20;0.20;;;22.30;99.90;;;;;;20622233;28;20322;-71
2021/03/15 15:56:01;;;;;;;0.20;0.20;;;23.00;99.90;;;;;;20618698;28;20240;-72
2021/03/15 16:06:05;;;;;;;0.20;0.20;;;22.40;99.90;;;;;;20629565;28;20232;-70
2021/03/15 16:16:08;;;;;;;0.60;0.60;;;21.80;99.90;;;;;;20613729;28;20224;-74
2021/03/15 16:26:15;;;;;;;0.27;0.27;;;19.80;99.90;;;;;;20636356;28;20297;-72
2021/03/15 16:36:18;;;;;;;0.20;0.10;;;19.00;99.90;;;;;;20617475;28;20385;-73
2021/03/15 16:46:21;;;;;;;0.27;0.27;;;18.00;99.90;;;;;;20621246;28;20744;-73
2021/03/15 16:56:25;;;;;;;0.80;0.53;;;18.10;99.90;;;;;;20617291;28;20282;-74
2021/03/15 17:06:29;;;;;;;2.00;0.50;;;17.60;99.90;;;;;;20617605;28;20227;-73
2021/03/15 17:16:31;;;;;;;2.03;0.90;;;16.70;99.90;;;;;;20631183;28;20223;-79
2021/03/15 17:26:35;;;;;;;1.23;1.10;;;16.30;99.90;;;;;;20595779;28;20557;-74
2021/03/15 17:36:38;;;;;;;0.30;0.30;;;15.90;99.90;;;;;;20592838;28;20755;-71
2021/03/15 17:46:41;;;;;;;1.13;0.93;;;15.40;99.90;;;;;;20611045;28;20305;-73
2021/03/15 17:56:44;;;;;;;2.93;0.50;;;14.90;99.90;;;;;;20610320;28;20219;-70
2021/03/15 18:06:49;;;;;;;0.50;0.40;;;14.80;99.90;;;;;;20617263;28;20235;-72
2021/03/15 18:16:51;;;;;;;4.10;0.93;;;14.80;99.90;;;;;;20607215;28;20219;-73
2021/03/15 18:26:55;;;;;;;0.57;0.53;;;14.60;99.90;;;;;;20612150;28;20206;-73
2021/03/15 18:36:58;;;;;;;1.90;0.40;;;14.40;99.90;;;;;;20622575;28;20362;-73
2021/03/15 18:47:01;;;;;;;2.80;1.37;;;14.20;99.90;;;;;;20610689;28;20632;-72
2021/03/15 18:57:04;;;;;;;0.60;0.20;;;14.00;99.90;;;;;;20623486;28;20223;-72
2021/03/15 19:07:23;;;;;;;0.20;0.10;;;14.00;99.90;;;;;;20625308;28;20223;-73
2021/03/15 19:17:25;;;;;;;0.63;0.53;;;13.60;99.90;;;;;;20611084;28;20573;-74
2021/03/15 19:27:29;;;;;;;6.07;1.00;;;12.60;99.90;;;;;;20609311;28;20192;-73
2021/03/15 19:37:32;;;;;;;0.20;0.20;;;12.40;99.90;;;;;;20610536;28;20310;-73
2021/03/15 19:47:35;;;;;;;3.00;0.80;;;12.30;99.90;;;;;;20576002;28;20502;-73
2021/03/15 19:57:38;;;;;;;0.73;0.70;;;12.30;99.90;;;;;;20612285;28;20289;-74
2021/03/15 20:07:44;;;;;;;0.53;0.50;;;12.10;99.90;;;;;;20622419;28;20233;-73
2021/03/15 20:17:50;;;;;;;0.57;0.57;;;11.90;99.90;;;;;;20620842;28;20258;-75
2021/03/15 20:27:56;;;;;;;0.57;0.57;;;11.90;99.90;;;;;;20616288;28;20546;-73
2021/03/15 20:37:58;;;;;;;0.60;0.60;;;11.80;99.90;;;;;;20552966;28;20228;-74
2021/03/15 20:48:02;;;;;;;0.47;0.47;;;11.80;99.90;;;;;;20560674;28;20251;-73
2021/03/15 20:58:05;;;;;;;0.60;0.60;;;11.80;99.90;;;;;;20617322;28;20923;-73
2021/03/15 21:08:10;;;;;;;1.60;0.80;;;11.50;99.90;;;;;;20616504;28;20764;-73
2021/03/15 21:18:13;;;;;;;0.70;0.70;;;11.40;99.90;;;;;;20615504;28;20714;-75
2021/03/15 21:28:17;;;;;;;0.47;0.47;;;11.20;99.90;;;;;;20613536;28;20226;-74
2021/03/15 21:38:20;;;;;;;0.40;0.33;;;11.20;99.90;;;;;;20602670;28;20240;-74
2021/03/15 21:48:24;;;;;;;0.20;0.17;;;11.10;99.90;;;;;;20606802;28;20239;-73
2021/03/15 21:58:27;;;;;;;0.20;0.20;;;11.00;99.90;;;;;;20612442;28;20216;-73
2021/03/15 22:08:30;;;;;;;0.20;0.20;;;10.70;99.90;;;;;;20611625;28;20241;-74
2021/03/15 22:18:33;;;;;;;5.80;0.83;;;10.70;99.90;;;;;;20612512;28;20782;-73
2021/03/15 22:28:37;;;;;;;1.07;0.67;;;10.60;99.90;;;;;;20609080;28;20649;-73
2021/03/15 22:48:58;;;;;;;0.40;0.30;;;10.30;99.90;;;;;;21792717;23;20280;-74
2021/03/15 22:59:02;;;;;;;4.53;1.27;;;10.30;99.90;;;;;;20484365;28;20723;-72
2021/03/15 23:09:08;;;;;;;0.20;0.10;;;10.20;99.90;;;;;;20473966;28;20198;-74
2021/03/15 23:19:13;;;;;;;0.20;0.20;;;10.20;99.90;;;;;;20492876;28;20360;-73
2021/03/15 23:29:20;;;;;;;0.87;0.40;;;10.00;99.90;;;;;;20516981;28;20189;-73
2021/03/15 23:39:22;;;;;;;0.30;0.30;;;10.10;99.90;;;;;;20498318;28;20209;-73
2021/03/15 23:49:26;;;;;;;0.93;0.70;;;9.90;99.90;;;;;;20491605;28;20228;-74
2021/03/15 23:59:29;;;;;;;0.20;0.10;;;9.60;99.90;;;;;;20463128;28;20712;-73
